createdAt,value
2022-08-04T06:08:12.169Z,1010.21
2022-08-04T06:09:02.764Z,1010.18
2022-08-04T06:10:01.746Z,1010.16
2022-08-04T06:11:01.771Z,1010.17
2022-08-04T06:12:04.243Z,1010.18
2022-08-04T06:13:01.708Z,1010.23
2022-08-04T06:14:01.682Z,1010.21
2022-08-04T06:15:01.699Z,1010.21
2022-08-04T06:16:01.661Z,1010.24
2022-08-04T06:17:01.649Z,1010.28
2022-08-04T06:19:58.815Z,1010.20
2022-08-04T06:20:00.352Z,1010.21
2022-08-04T06:20:19.019Z,1010.23
2022-08-04T06:21:02.617Z,1010.21
2022-08-04T06:22:01.608Z,1010.26
2022-08-04T06:23:01.606Z,1010.21
2022-08-04T06:24:04.475Z,1010.23
2022-08-04T06:25:01.600Z,1010.28
2022-08-04T06:26:01.565Z,1010.30
2022-08-04T06:27:01.550Z,1010.31
2022-08-04T06:28:01.552Z,1010.34
2022-08-04T06:29:01.537Z,1010.30
2022-08-04T06:30:01.545Z,1010.31
2022-08-04T06:31:01.504Z,1010.27
2022-08-04T06:32:29.912Z,1010.23
2022-08-04T06:33:03.493Z,1010.26
2022-08-04T06:34:01.475Z,1010.29
2022-08-04T06:35:01.476Z,1010.32
2022-08-04T06:36:01.465Z,1010.28
2022-08-04T06:37:01.453Z,1010.23
2022-08-04T06:38:01.987Z,1010.27
2022-08-04T06:39:01.493Z,1010.28
2022-08-04T06:40:01.417Z,1010.30
2022-08-04T06:41:01.429Z,1010.30
2022-08-04T06:42:21.431Z,1010.25
2022-08-04T06:43:02.421Z,1010.31
2022-08-04T06:44:01.377Z,1010.32
2022-08-04T06:45:01.369Z,1010.32
2022-08-04T06:46:01.356Z,1010.27
2022-08-04T06:47:01.373Z,1010.27
2022-08-04T06:48:01.333Z,1010.29
2022-08-04T06:49:01.331Z,1010.27
2022-08-04T06:51:25.533Z,1010.29
2022-08-04T06:51:26.829Z,1010.29
2022-08-04T06:52:02.305Z,1010.31
2022-08-04T06:53:01.306Z,1010.29
2022-08-04T06:54:01.278Z,1010.25
2022-08-04T06:55:01.267Z,1010.28
2022-08-04T06:56:01.260Z,1010.28
2022-08-04T06:57:01.356Z,1010.19
2022-08-04T06:58:03.371Z,1010.30
2022-08-04T06:59:01.242Z,1010.24
2022-08-04T07:00:01.241Z,1010.27
2022-08-04T07:01:01.199Z,1010.20
2022-08-04T07:02:01.238Z,1010.19
2022-08-04T07:03:01.196Z,1010.24
2022-08-04T07:04:01.167Z,1010.18
2022-08-04T07:05:05.814Z,1010.20
2022-08-04T07:06:05.671Z,1010.20
2022-08-04T07:07:01.132Z,1010.19
2022-08-04T07:08:01.127Z,1010.27
2022-08-04T07:09:01.128Z,1010.20
2022-08-04T07:10:01.104Z,1010.17
2022-08-04T07:11:01.093Z,1010.19
2022-08-04T07:12:01.084Z,1010.17
2022-08-04T07:13:01.079Z,1010.18
2022-08-04T07:14:01.066Z,1010.19
2022-08-04T07:15:01.060Z,1010.25
2022-08-04T07:16:01.045Z,1010.23
2022-08-04T07:17:01.043Z,1010.24
2022-08-04T07:18:01.014Z,1010.17
2022-08-04T07:19:10.390Z,1010.17
2022-08-04T07:20:01.992Z,1010.19
2022-08-04T07:21:00.994Z,1010.18
2022-08-04T07:22:18.063Z,1010.24
2022-08-04T07:23:01.983Z,1010.23
2022-08-04T07:24:00.969Z,1010.15
2022-08-04T07:25:01.211Z,1010.16
2022-08-04T07:26:12.098Z,1010.16
2022-08-04T07:27:01.930Z,1010.19
2022-08-04T07:28:00.913Z,1010.18
2022-08-04T07:29:00.911Z,1010.14
2022-08-04T07:30:00.933Z,1010.19
2022-08-04T07:31:00.881Z,1010.24
2022-08-04T07:32:00.875Z,1010.23
2022-08-04T07:33:00.869Z,1010.13
2022-08-04T07:34:17.120Z,1010.12
2022-08-04T07:35:01.957Z,1010.12
2022-08-04T07:36:09.699Z,1010.17
2022-08-04T07:37:01.834Z,1010.20
2022-08-04T07:38:00.810Z,1010.17
2022-08-04T07:39:00.908Z,1010.16
2022-08-04T07:40:00.895Z,1010.16
2022-08-04T07:41:00.847Z,1010.15
2022-08-04T07:42:01.201Z,1010.15
2022-08-04T07:43:00.844Z,1010.19
2022-08-04T07:44:00.776Z,1010.17
2022-08-04T07:45:00.827Z,1010.17
2022-08-04T07:46:01.345Z,1010.20
2022-08-04T07:47:00.866Z,1010.18
2022-08-04T07:48:04.997Z,1010.13
2022-08-04T07:49:03.613Z,1010.19
2022-08-04T07:50:00.817Z,1010.18
2022-08-04T07:51:00.680Z,1010.11
2022-08-04T07:52:00.672Z,1010.13
2022-08-04T07:53:52.686Z,1010.15
2022-08-04T07:54:01.661Z,1010.12
2022-08-04T07:55:00.642Z,1010.16
2022-08-04T07:56:00.633Z,1010.16
2022-08-04T07:57:00.628Z,1010.17
2022-08-04T07:58:00.621Z,1010.19
2022-08-04T07:59:00.647Z,1010.15
2022-08-04T08:00:01.098Z,1010.16
2022-08-04T08:01:03.390Z,1010.14
2022-08-04T08:02:01.761Z,1010.13
2022-08-04T08:03:00.668Z,1010.14
2022-08-04T08:04:04.358Z,1010.12
2022-08-04T08:05:02.094Z,1010.12
2022-08-04T08:06:31.018Z,1010.02
2022-08-04T08:07:02.848Z,1010.04
2022-08-04T08:08:01.091Z,1010.11
2022-08-04T08:09:00.547Z,1010.05
2022-08-04T08:10:01.511Z,1010.09
2022-08-04T08:11:03.856Z,1010.06
2022-08-04T08:12:36.981Z,1010.08
2022-08-04T08:13:04.406Z,1010.03
2022-08-04T08:14:00.557Z,1010.01
2022-08-04T08:15:00.461Z,1009.98
2022-08-04T08:16:00.435Z,1009.99
2022-08-04T08:17:02.526Z,1009.96
2022-08-04T08:18:00.972Z,1009.99
2022-08-04T08:19:00.547Z,1010.00
2022-08-04T08:20:00.392Z,1009.95
2022-08-04T08:21:00.394Z,1009.95
2022-08-04T08:22:01.275Z,1009.95
2022-08-04T08:23:00.351Z,1009.95
2022-08-04T08:24:00.346Z,1009.94
2022-08-04T08:25:00.343Z,1009.90
2022-08-04T08:26:00.678Z,1009.86
2022-08-04T08:27:00.704Z,1009.92
2022-08-04T08:28:00.318Z,1009.94
2022-08-04T08:29:00.286Z,1009.97
2022-08-04T08:30:00.291Z,1009.93
2022-08-04T08:31:00.393Z,1009.94
2022-08-04T08:32:07.029Z,1009.97
2022-08-04T08:33:05.736Z,1009.92
2022-08-04T08:34:00.484Z,1009.94
2022-08-04T08:35:01.901Z,1009.97
2022-08-04T08:36:01.038Z,1009.97
2022-08-04T08:37:03.629Z,1009.90
2022-08-04T08:38:04.378Z,1009.94
2022-08-04T08:40:04.071Z,1009.84
2022-08-04T08:41:04.693Z,1009.83
2022-08-04T08:42:04.243Z,1009.84
2022-08-04T08:43:00.211Z,1009.86
2022-08-04T08:44:05.586Z,1009.84
2022-08-04T08:45:03.722Z,1009.87
2022-08-04T08:46:01.013Z,1009.87
2022-08-04T08:47:02.696Z,1009.86
2022-08-04T08:48:05.892Z,1009.92
2022-08-04T08:49:02.603Z,1009.88
2022-08-04T08:50:04.043Z,1009.80
2022-08-04T08:51:02.667Z,1009.86
2022-08-04T08:52:00.336Z,1009.87
2022-08-04T08:53:04.102Z,1009.85
2022-08-04T08:54:06.464Z,1009.88
2022-08-04T08:55:04.984Z,1009.90
2022-08-04T08:56:03.986Z,1009.79
2022-08-04T08:57:01.184Z,1009.81
2022-08-04T08:58:02.338Z,1009.82
2022-08-04T08:59:00.021Z,1009.84
2022-08-04T09:00:02.610Z,1009.80
2022-08-04T09:01:03.107Z,1009.82
2022-08-04T09:02:04.000Z,1009.83
2022-08-04T09:03:04.190Z,1009.84
2022-08-04T09:04:01.914Z,1009.81
2022-08-04T09:05:03.996Z,1009.85
2022-08-04T09:06:02.204Z,1009.79
2022-08-04T09:07:01.365Z,1009.80
2022-08-04T09:08:00.415Z,1009.79
2022-08-04T09:09:00.879Z,1009.83
2022-08-04T09:10:02.512Z,1009.82
2022-08-04T09:11:02.942Z,1009.80
2022-08-04T09:12:01.676Z,1009.82
2022-08-04T09:13:02.205Z,1009.81
2022-08-04T09:13:59.986Z,1009.84
2022-08-04T09:14:59.845Z,1009.85
2022-08-04T09:16:02.830Z,1009.83
2022-08-04T09:17:03.349Z,1009.81
2022-08-04T09:18:03.834Z,1009.84
2022-08-04T09:19:10.277Z,1009.79
2022-08-04T09:21:17.055Z,1009.86
2022-08-04T09:23:17.375Z,1009.86
2022-08-04T09:24:35.241Z,1009.86
2022-08-04T09:25:17.163Z,1009.86
2022-08-04T09:27:17.121Z,1009.85
2022-08-04T09:28:31.683Z,1009.88
2022-08-04T09:29:20.050Z,1009.81
2022-08-04T09:30:15.988Z,1009.76
2022-08-04T09:31:17.398Z,1009.76
2022-08-04T09:33:22.784Z,1009.75
2022-08-04T09:34:17.121Z,1009.77
2022-08-04T09:35:16.254Z,1009.77
2022-08-04T09:36:26.150Z,1009.83
2022-08-04T09:37:21.684Z,1009.81
2022-08-04T09:39:18.156Z,1009.76
2022-08-04T09:40:31.539Z,1009.77
2022-08-04T09:41:20.523Z,1009.73
2022-08-04T09:42:16.286Z,1009.71
2022-08-04T09:43:19.887Z,1009.69
2022-08-04T09:45:26.428Z,1009.66
2022-08-04T09:46:19.837Z,1009.70
2022-08-04T09:47:20.261Z,1009.72
2022-08-04T09:48:17.632Z,1009.71
2022-08-04T09:49:16.849Z,1009.74
2022-08-04T09:50:15.903Z,1009.74
2022-08-04T09:51:15.768Z,1009.74
2022-08-04T09:52:16.632Z,1009.73
2022-08-04T09:53:15.799Z,1009.73
2022-08-04T09:54:29.319Z,1009.62
2022-08-04T09:55:16.890Z,1009.64
2022-08-04T09:56:21.246Z,1009.64
2022-08-04T09:57:15.700Z,1009.62
2022-08-04T09:58:30.935Z,1009.67
2022-08-04T09:59:15.687Z,1009.64
2022-08-04T10:00:15.889Z,1009.61
2022-08-04T10:01:19.754Z,1009.61
2022-08-04T10:02:16.710Z,1009.66
2022-08-04T10:03:19.990Z,1009.59
2022-08-04T10:04:16.737Z,1009.63
2022-08-04T10:06:16.640Z,1009.59
2022-08-04T10:07:15.587Z,1009.58
2022-08-04T10:08:17.239Z,1009.60
2022-08-04T10:09:15.919Z,1009.58
2022-08-04T10:10:15.564Z,1009.62
2022-08-04T10:11:15.569Z,1009.63
2022-08-04T10:12:15.626Z,1009.55
2022-08-04T10:13:16.565Z,1009.55
2022-08-04T10:14:18.141Z,1009.54
2022-08-04T10:15:15.511Z,1009.58
2022-08-04T10:16:15.492Z,1009.51
2022-08-04T10:17:15.652Z,1009.51
2022-08-04T10:18:15.777Z,1009.55
2022-08-04T10:19:15.613Z,1009.52
2022-08-04T10:20:15.465Z,1009.55
2022-08-04T10:21:16.482Z,1009.54
2022-08-04T10:22:28.462Z,1009.51
2022-08-04T10:23:16.463Z,1009.42
2022-08-04T10:24:15.415Z,1009.45
2022-08-04T10:25:42.625Z,1009.48
2022-08-04T10:26:16.400Z,1009.40
2022-08-04T10:27:15.408Z,1009.45
2022-08-04T10:28:15.373Z,1009.43
2022-08-04T10:29:15.378Z,1009.40
2022-08-04T10:30:15.357Z,1009.44
2022-08-04T10:31:15.347Z,1009.43
2022-08-04T10:32:15.336Z,1009.40
2022-08-04T10:33:15.338Z,1009.35
2022-08-04T10:34:15.327Z,1009.45
2022-08-04T10:35:15.308Z,1009.42
2022-08-04T10:36:15.300Z,1009.37
2022-08-04T10:37:15.318Z,1009.32
2022-08-04T10:38:15.654Z,1009.35
2022-08-04T10:39:42.697Z,1009.36
2022-08-04T10:40:16.253Z,1009.33
2022-08-04T10:41:15.249Z,1009.30
2022-08-04T10:42:15.228Z,1009.28
2022-08-04T10:43:22.309Z,1009.30
2022-08-04T10:44:16.226Z,1009.29
2022-08-04T10:45:15.213Z,1009.28
2022-08-04T10:46:15.189Z,1009.30
2022-08-04T10:47:15.175Z,1009.28
2022-08-04T10:48:15.177Z,1009.23
2022-08-04T10:49:16.632Z,1009.24
2022-08-04T10:50:16.158Z,1009.23
2022-08-04T10:51:16.148Z,1009.20
2022-08-04T10:52:17.202Z,1009.23
2022-08-04T10:53:15.122Z,1009.23
2022-08-04T10:55:18.216Z,1009.21
2022-08-04T10:56:15.108Z,1009.24
2022-08-04T10:57:16.598Z,1009.17
2022-08-04T10:58:15.070Z,1009.09
2022-08-04T10:59:15.073Z,1009.15
2022-08-04T11:00:15.067Z,1009.10
2022-08-04T11:02:01.436Z,1009.09
2022-08-04T11:02:16.702Z,1009.10
2022-08-04T11:03:15.053Z,1009.13
2022-08-04T11:04:15.022Z,1009.09
2022-08-04T11:05:16.025Z,1009.14
2022-08-04T11:06:15.266Z,1009.12
2022-08-04T11:07:15.108Z,1009.08
2022-08-04T11:08:20.215Z,1009.07
2022-08-04T11:09:15.962Z,1009.08
2022-08-04T11:10:14.963Z,1009.09
2022-08-04T11:11:14.933Z,1009.12
2022-08-04T11:12:14.981Z,1009.14
2022-08-04T11:13:29.512Z,1009.05
2022-08-04T11:14:15.912Z,1009.04
2022-08-04T11:15:14.921Z,1008.96
2022-08-04T11:16:14.906Z,1008.96
2022-08-04T11:17:14.876Z,1009.00
2022-08-04T11:18:16.389Z,1008.97
2022-08-04T11:19:14.867Z,1008.90
2022-08-04T11:20:36.483Z,1008.96
2022-08-04T11:21:15.843Z,1008.92
2022-08-04T11:22:14.830Z,1008.90
2022-08-04T11:23:14.824Z,1008.86
2022-08-04T11:24:14.964Z,1008.98
2022-08-04T11:25:16.170Z,1008.96
2022-08-04T11:26:14.814Z,1008.94
2022-08-04T11:27:17.141Z,1008.94
2022-08-04T11:28:16.822Z,1008.87
2022-08-04T11:29:16.827Z,1008.85
2022-08-04T11:30:14.785Z,1008.93
2022-08-04T11:31:16.665Z,1009.00
2022-08-04T11:32:16.329Z,1008.90
2022-08-04T11:33:14.761Z,1009.00
2022-08-04T11:34:14.713Z,1009.02
2022-08-04T11:35:14.707Z,1009.02
2022-08-04T11:36:14.782Z,1009.02
2022-08-04T11:37:14.883Z,1009.05
2022-08-04T11:38:14.723Z,1009.02
2022-08-04T11:39:16.185Z,1008.93
2022-08-04T11:40:14.655Z,1008.97
2022-08-04T11:41:14.663Z,1008.94
2022-08-04T11:42:14.637Z,1008.93
2022-08-04T11:43:14.635Z,1008.99
2022-08-04T11:44:15.603Z,1008.99
2022-08-04T11:45:14.600Z,1008.97
2022-08-04T11:46:14.597Z,1009.04
2022-08-04T11:47:14.575Z,1009.05
2022-08-04T11:48:14.604Z,1009.06
2022-08-04T11:49:14.567Z,1008.95
2022-08-04T11:50:14.560Z,1008.98
2022-08-04T11:51:14.537Z,1008.99
2022-08-04T11:52:14.522Z,1008.97
2022-08-04T11:53:14.519Z,1008.98
2022-08-04T11:54:14.527Z,1009.01
2022-08-04T11:55:14.498Z,1008.96
2022-08-04T11:56:16.781Z,1009.02
2022-08-04T11:57:15.477Z,1009.02
2022-08-04T11:58:14.467Z,1008.98
2022-08-04T11:59:14.458Z,1009.00
2022-08-04T12:00:14.468Z,1008.98
2022-08-04T12:01:14.435Z,1009.03
2022-08-04T12:02:19.071Z,1008.99
2022-08-04T12:03:15.419Z,1009.01
2022-08-04T12:04:14.404Z,1008.99
2022-08-04T12:05:33.638Z,1008.97
2022-08-04T12:06:15.391Z,1008.98
2022-08-04T12:07:30.535Z,1009.02
2022-08-04T12:08:15.386Z,1008.92
2022-08-04T12:09:14.353Z,1008.97
2022-08-04T12:10:14.352Z,1008.97
2022-08-04T12:11:14.334Z,1008.92
2022-08-04T12:12:14.346Z,1008.88
2022-08-04T12:13:14.320Z,1008.91
2022-08-04T12:14:14.312Z,1008.88
2022-08-04T12:15:15.457Z,1008.89
2022-08-04T12:16:14.291Z,1008.81
2022-08-04T12:17:14.358Z,1008.84
2022-08-04T12:18:14.285Z,1008.85
2022-08-04T12:19:15.446Z,1008.83
2022-08-04T12:20:31.622Z,1008.84
2022-08-04T12:21:15.239Z,1008.81
2022-08-04T12:22:14.238Z,1008.77
2022-08-04T12:23:14.214Z,1008.76
2022-08-04T12:24:14.224Z,1008.68
2022-08-04T12:25:14.218Z,1008.70
2022-08-04T12:26:14.183Z,1008.79
2022-08-04T12:27:14.294Z,1008.80
2022-08-04T12:28:14.164Z,1008.83
2022-08-04T12:29:14.160Z,1008.89
2022-08-04T12:30:58.560Z,1008.83
2022-08-04T12:31:15.144Z,1008.78
2022-08-04T12:32:14.138Z,1008.73
2022-08-04T12:33:18.013Z,1008.80
2022-08-04T12:34:14.111Z,1008.77
2022-08-04T12:35:14.096Z,1008.73
2022-08-04T12:36:17.900Z,1008.74
2022-08-04T12:37:15.085Z,1008.76
2022-08-04T12:38:15.064Z,1008.78
2022-08-04T12:39:14.129Z,1008.76
2022-08-04T12:40:28.263Z,1008.78
2022-08-04T12:41:15.058Z,1008.74
2022-08-04T12:42:17.141Z,1008.73
2022-08-04T12:43:15.030Z,1008.69
2022-08-04T12:44:36.242Z,1008.66
2022-08-04T12:45:14.996Z,1008.64
2022-08-04T12:46:13.996Z,1008.59
2022-08-04T12:47:26.689Z,1008.61
2022-08-04T12:49:24.345Z,1008.61
2022-08-04T12:50:31.974Z,1008.59
2022-08-04T12:52:07.881Z,1008.60
2022-08-04T12:52:45.078Z,1008.56
2022-08-04T12:53:31.857Z,1008.56
2022-08-04T12:54:28.829Z,1008.50
2022-08-04T12:55:24.261Z,1008.52
2022-08-04T12:56:24.218Z,1008.52
2022-08-04T12:57:24.337Z,1008.59
2022-08-04T12:58:41.893Z,1008.50
2022-08-04T12:59:25.180Z,1008.58
2022-08-04T13:00:29.283Z,1008.54
2022-08-04T13:02:08.625Z,1008.54
2022-08-04T13:02:25.299Z,1008.58
2022-08-04T13:03:24.141Z,1008.51
2022-08-04T13:04:24.570Z,1008.51
2022-08-04T13:05:25.125Z,1008.48
2022-08-04T13:06:24.174Z,1008.49
2022-08-04T13:07:24.481Z,1008.48
2022-08-04T13:08:24.089Z,1008.51
2022-08-04T13:09:24.100Z,1008.47
2022-08-04T13:10:30.691Z,1008.45
2022-08-04T13:11:25.078Z,1008.45
2022-08-04T13:12:31.934Z,1008.45
2022-08-04T13:13:25.046Z,1008.48
2022-08-04T13:14:27.542Z,1008.44
2022-08-04T13:15:24.042Z,1008.50
2022-08-04T13:16:24.010Z,1008.48
2022-08-04T13:17:24.015Z,1008.47
2022-08-04T13:18:28.863Z,1008.45
2022-08-04T13:19:25.008Z,1008.46
2022-08-04T13:20:24.008Z,1008.47
2022-08-04T13:21:50.381Z,1008.48
2022-08-04T13:22:26.575Z,1008.47
2022-08-04T13:23:23.948Z,1008.42
2022-08-04T13:24:33.012Z,1008.35
2022-08-04T13:26:43.616Z,1008.37
2022-08-04T13:26:44.057Z,1008.42
2022-08-04T13:27:24.927Z,1008.38
2022-08-04T13:28:23.901Z,1008.38
2022-08-04T13:29:23.890Z,1008.39
2022-08-04T13:30:25.713Z,1008.42
2022-08-04T13:31:23.872Z,1008.33
2022-08-04T13:32:23.873Z,1008.40
2022-08-04T13:33:23.851Z,1008.36
2022-08-04T13:34:23.834Z,1008.43
2022-08-04T13:35:26.866Z,1008.43
2022-08-04T13:36:24.822Z,1008.31
2022-08-04T13:37:24.195Z,1008.27
2022-08-04T13:38:23.791Z,1008.31
2022-08-04T13:39:23.842Z,1008.30
2022-08-04T13:40:23.779Z,1008.30
2022-08-04T13:41:27.651Z,1008.26
2022-08-04T13:42:24.768Z,1008.24
2022-08-04T13:44:15.380Z,1008.25
2022-08-04T13:44:24.748Z,1008.27
2022-08-04T13:45:23.732Z,1008.20
2022-08-04T13:46:27.685Z,1008.14
2022-08-04T13:47:24.004Z,1008.23
2022-08-04T13:48:32.426Z,1008.19
2022-08-04T13:49:42.810Z,1008.15
2022-08-04T13:50:24.678Z,1008.06
2022-08-04T13:51:23.676Z,1008.14
2022-08-04T13:52:24.709Z,1008.08
2022-08-04T13:53:25.662Z,1008.11
2022-08-04T13:54:24.638Z,1008.10
2022-08-04T13:55:23.640Z,1008.11
2022-08-04T13:56:23.614Z,1008.10
2022-08-04T13:57:24.007Z,1008.09
2022-08-04T13:58:23.591Z,1008.08
2022-08-04T13:59:23.583Z,1008.06
2022-08-04T14:00:30.005Z,1008.04
2022-08-04T14:01:36.001Z,1007.98
2022-08-04T14:02:24.571Z,1008.02
2022-08-04T14:03:24.736Z,1008.00
2022-08-04T14:04:23.540Z,1008.00
2022-08-04T14:05:27.492Z,1007.96
2022-08-04T14:06:24.513Z,1007.92
2022-08-04T14:07:23.519Z,1007.94
2022-08-04T14:08:23.508Z,1007.90
2022-08-04T14:09:23.485Z,1007.93
2022-08-04T14:10:24.473Z,1007.87
2022-08-04T14:12:09.376Z,1007.86
2022-08-04T14:12:45.400Z,1007.82
2022-08-04T14:13:24.463Z,1007.71
2022-08-04T14:14:23.438Z,1007.72
2022-08-04T14:15:23.431Z,1007.71
2022-08-04T14:16:23.413Z,1007.66
2022-08-04T14:17:23.525Z,1007.74
2022-08-04T14:18:24.428Z,1007.74
2022-08-04T14:19:26.837Z,1007.70
2022-08-04T14:20:24.371Z,1007.68
2022-08-04T14:21:23.367Z,1007.72
2022-08-04T14:22:23.354Z,1007.73
2022-08-04T14:23:23.354Z,1007.78
2022-08-04T14:24:24.352Z,1007.76
2022-08-04T14:25:25.651Z,1007.71
2022-08-04T14:26:30.029Z,1007.69
2022-08-04T14:27:24.626Z,1007.71
2022-08-04T14:28:23.296Z,1007.72
2022-08-04T14:29:26.255Z,1007.73
2022-08-04T14:30:23.280Z,1007.67
2022-08-04T14:31:25.754Z,1007.68
2022-08-04T14:32:26.266Z,1007.64
2022-08-04T14:34:04.031Z,1007.66
2022-08-04T14:34:24.469Z,1007.62
2022-08-04T14:35:26.495Z,1007.67
2022-08-04T14:36:24.219Z,1007.62
2022-08-04T14:37:23.217Z,1007.62
2022-08-04T14:38:23.202Z,1007.61
2022-08-04T14:39:23.221Z,1007.58
2022-08-04T14:40:30.655Z,1007.59
2022-08-04T14:41:24.169Z,1007.61
2022-08-04T14:42:23.383Z,1007.54
2022-08-04T14:43:23.147Z,1007.62
2022-08-04T14:44:23.139Z,1007.57
2022-08-04T14:45:23.172Z,1007.46
2022-08-04T14:46:23.120Z,1007.49
2022-08-04T14:47:24.122Z,1007.46
2022-08-04T14:48:23.214Z,1007.50
2022-08-04T14:49:23.089Z,1007.51
2022-08-04T14:50:23.099Z,1007.47
2022-08-04T14:51:26.136Z,1007.55
2022-08-04T14:52:24.377Z,1007.49
2022-08-04T14:53:23.069Z,1007.43
2022-08-04T14:54:23.033Z,1007.50
2022-08-04T14:55:23.036Z,1007.51
2022-08-04T14:56:45.083Z,1007.53
2022-08-04T14:57:24.013Z,1007.47
2022-08-04T14:58:32.986Z,1007.48
2022-08-04T14:59:23.992Z,1007.47
2022-08-04T15:00:22.983Z,1007.43
2022-08-04T15:01:22.993Z,1007.52
2022-08-04T15:02:23.175Z,1007.40
2022-08-04T15:03:23.951Z,1007.38
2022-08-04T15:04:22.961Z,1007.35
2022-08-04T15:05:55.406Z,1007.38
2022-08-04T15:06:24.178Z,1007.33
2022-08-04T15:07:22.924Z,1007.32
2022-08-04T15:08:22.901Z,1007.32
2022-08-04T15:09:23.889Z,1007.28
2022-08-04T15:10:22.886Z,1007.29
2022-08-04T15:11:24.247Z,1007.32
2022-08-04T15:12:23.071Z,1007.31
2022-08-04T15:13:22.869Z,1007.35
2022-08-04T15:14:36.783Z,1007.34
2022-08-04T15:15:36.354Z,1007.35
2022-08-04T15:16:23.825Z,1007.32
2022-08-04T15:17:29.209Z,1007.32
2022-08-04T15:18:23.812Z,1007.27
2022-08-04T15:19:22.785Z,1007.28
2022-08-04T15:20:22.785Z,1007.31
2022-08-04T15:21:22.770Z,1007.26
2022-08-04T15:22:22.776Z,1007.32
2022-08-04T15:23:22.755Z,1007.28
2022-08-04T15:24:23.758Z,1007.27
2022-08-04T15:25:22.728Z,1007.30
2022-08-04T15:26:22.717Z,1007.29
2022-08-04T15:27:22.716Z,1007.28
2022-08-04T15:28:22.709Z,1007.29
2022-08-04T15:29:22.699Z,1007.28
2022-08-04T15:30:22.699Z,1007.27
2022-08-04T15:32:04.292Z,1007.24
2022-08-04T15:32:23.957Z,1007.27
2022-08-04T15:33:23.457Z,1007.27
2022-08-04T15:34:23.655Z,1007.24
2022-08-04T15:35:27.964Z,1007.26
2022-08-04T15:36:23.639Z,1007.31
2022-08-04T15:37:22.620Z,1007.22
2022-08-04T15:38:22.668Z,1007.28
2022-08-04T15:40:33.116Z,1007.18
2022-08-04T15:41:23.648Z,1007.20
2022-08-04T15:42:25.980Z,1007.13
2022-08-04T15:43:22.892Z,1007.14
2022-08-04T15:44:26.453Z,1007.13
2022-08-04T15:45:22.549Z,1007.16
2022-08-04T15:46:41.787Z,1007.15
2022-08-04T15:47:23.509Z,1007.12
2022-08-04T15:48:22.508Z,1007.07
2022-08-04T15:49:22.508Z,1007.13
2022-08-04T15:50:28.257Z,1007.10
2022-08-04T15:51:23.470Z,1007.09
2022-08-04T15:52:23.829Z,1007.12
2022-08-04T15:53:23.447Z,1007.06
2022-08-04T15:54:30.791Z,1007.06
2022-08-04T15:55:23.438Z,1007.06
2022-08-04T15:56:22.474Z,1007.11
2022-08-04T15:57:22.426Z,1007.09
2022-08-04T15:58:22.400Z,1007.05
2022-08-04T15:59:24.096Z,1007.08
2022-08-04T16:00:22.386Z,1007.08
2022-08-04T16:01:22.451Z,1007.08
2022-08-04T16:02:22.860Z,1007.07
2022-08-04T16:03:22.369Z,1007.02
2022-08-04T16:04:23.346Z,1007.00
2022-08-04T16:05:22.364Z,1007.04
2022-08-04T16:06:22.453Z,1006.97
2022-08-04T16:07:22.307Z,1007.01
2022-08-04T16:08:22.307Z,1006.99
2022-08-04T16:09:22.294Z,1006.97
2022-08-04T16:10:22.279Z,1007.02
2022-08-04T16:11:30.778Z,1007.02
2022-08-04T16:12:52.367Z,1006.98
2022-08-04T16:13:23.265Z,1006.96
2022-08-04T16:14:22.256Z,1006.95
2022-08-04T16:15:22.238Z,1006.98
2022-08-04T16:16:22.222Z,1006.98
2022-08-04T16:17:22.212Z,1007.03
2022-08-04T16:18:26.071Z,1007.00
2022-08-04T16:19:22.191Z,1007.02
2022-08-04T16:20:22.191Z,1007.03
2022-08-04T16:21:22.185Z,1007.03
2022-08-04T16:22:22.404Z,1006.95
2022-08-04T16:23:43.776Z,1006.98
2022-08-04T16:24:23.143Z,1007.00
2022-08-04T16:25:22.136Z,1007.00
2022-08-04T16:26:22.117Z,1007.04
2022-08-04T16:27:23.396Z,1006.99
2022-08-04T16:28:22.098Z,1007.03
2022-08-04T16:29:22.095Z,1007.04
2022-08-04T16:30:22.093Z,1007.01
2022-08-04T16:31:22.073Z,1007.00
2022-08-04T16:32:22.355Z,1006.99
2022-08-04T16:33:22.052Z,1006.94
2022-08-04T16:34:48.871Z,1006.98
2022-08-04T16:35:23.041Z,1007.04
2022-08-04T16:36:22.023Z,1007.01
2022-08-04T16:37:22.038Z,1007.11
2022-08-04T16:38:22.004Z,1007.02
2022-08-04T16:39:22.034Z,1006.95
2022-08-04T16:40:21.985Z,1006.99
2022-08-04T16:41:21.979Z,1006.97
2022-08-04T16:42:22.277Z,1006.96
2022-08-04T16:43:21.971Z,1006.95
2022-08-04T16:44:50.458Z,1006.97
2022-08-04T16:45:22.997Z,1006.97
2022-08-04T16:46:22.126Z,1006.97
2022-08-04T16:47:22.955Z,1007.05
2022-08-04T16:48:21.913Z,1006.97
2022-08-04T16:49:21.901Z,1006.93
2022-08-04T16:50:21.891Z,1006.95
2022-08-04T16:51:21.891Z,1006.95
2022-08-04T16:52:21.873Z,1006.90
2022-08-04T16:53:52.266Z,1006.94
2022-08-04T16:54:22.864Z,1006.92
2022-08-04T16:55:21.838Z,1006.90
2022-08-04T16:56:21.843Z,1006.86
2022-08-04T16:57:21.825Z,1006.85
2022-08-04T16:58:22.879Z,1006.89
2022-08-04T16:59:21.801Z,1006.85
2022-08-04T17:00:21.796Z,1006.85
2022-08-04T17:01:33.402Z,1006.89
2022-08-04T17:02:23.044Z,1006.86
2022-08-04T17:03:21.762Z,1006.91
2022-08-04T17:04:21.762Z,1006.89
2022-08-04T17:05:39.703Z,1006.92
2022-08-04T17:06:22.750Z,1006.93
2022-08-04T17:07:21.747Z,1006.90
2022-08-04T17:08:30.323Z,1006.91
2022-08-04T17:09:28.165Z,1006.89
2022-08-04T17:10:22.697Z,1006.87
2022-08-04T17:11:21.690Z,1006.85
2022-08-04T17:12:21.880Z,1006.90
2022-08-04T17:14:04.646Z,1006.85
2022-08-04T17:14:22.665Z,1006.83
2022-08-04T17:15:21.656Z,1006.88
2022-08-04T17:16:21.631Z,1006.86
2022-08-04T17:17:21.639Z,1006.87
2022-08-04T17:18:21.619Z,1006.79
2022-08-04T17:19:25.657Z,1006.80
2022-08-04T17:20:22.591Z,1006.82
2022-08-04T17:21:21.604Z,1006.84
2022-08-04T17:22:21.862Z,1006.75
2022-08-04T17:24:13.443Z,1006.83
2022-08-04T17:24:22.567Z,1006.80
2022-08-04T17:25:21.551Z,1006.78
2022-08-04T17:26:22.547Z,1006.83
2022-08-04T17:28:20.101Z,1006.82
2022-08-04T17:28:28.496Z,1006.83
2022-08-04T17:29:22.521Z,1006.80
2022-08-04T17:30:21.492Z,1006.74
2022-08-04T17:31:21.481Z,1006.79
2022-08-04T17:32:22.450Z,1006.72
2022-08-04T17:33:21.470Z,1006.84
2022-08-04T17:34:21.603Z,1006.81
2022-08-04T17:35:21.463Z,1006.88
2022-08-04T17:36:21.441Z,1006.79
2022-08-04T17:37:37.996Z,1006.81
2022-08-04T17:38:22.410Z,1006.77
2022-08-04T17:39:21.748Z,1006.76
2022-08-04T17:40:25.675Z,1006.75
2022-08-04T17:41:38.708Z,1006.79
2022-08-04T17:42:22.369Z,1006.73
2022-08-04T17:44:04.678Z,1006.82
2022-08-04T17:44:22.356Z,1006.74
2022-08-04T17:46:28.783Z,1006.77
2022-08-04T17:47:22.328Z,1006.78
2022-08-04T17:48:24.244Z,1006.81
2022-08-04T17:49:21.308Z,1006.75
2022-08-04T17:50:21.298Z,1006.75
2022-08-04T17:51:21.311Z,1006.70
2022-08-04T17:52:41.375Z,1006.72
2022-08-04T17:53:22.326Z,1006.79
2022-08-04T17:54:29.891Z,1006.75
2022-08-04T17:55:22.239Z,1006.69
2022-08-04T17:56:21.236Z,1006.78
2022-08-04T17:57:22.452Z,1006.83
2022-08-04T17:58:22.387Z,1006.76
2022-08-04T17:59:55.786Z,1006.80
2022-08-04T18:00:22.194Z,1006.79
2022-08-04T18:01:25.076Z,1006.77
2022-08-04T18:02:21.187Z,1006.71
2022-08-04T18:03:23.066Z,1006.70
2022-08-04T18:04:21.157Z,1006.73
2022-08-04T18:05:21.159Z,1006.73
2022-08-04T18:06:21.138Z,1006.68
2022-08-04T18:08:45.685Z,1006.70
2022-08-04T18:08:46.070Z,1006.67
2022-08-04T18:10:01.794Z,1006.67
2022-08-04T18:10:31.066Z,1006.73
2022-08-04T18:11:22.433Z,1006.68
2022-08-04T18:12:22.067Z,1006.63
2022-08-04T18:13:21.078Z,1006.63
2022-08-04T18:14:28.739Z,1006.61
2022-08-04T18:15:22.043Z,1006.59
2022-08-04T18:16:22.961Z,1006.59
2022-08-04T18:18:22.215Z,1006.60
2022-08-04T18:18:23.632Z,1006.58
2022-08-04T18:19:21.000Z,1006.61
2022-08-04T18:20:20.994Z,1006.64
2022-08-04T18:21:20.974Z,1006.64
2022-08-04T18:22:28.266Z,1006.61
2022-08-04T18:23:31.447Z,1006.64
2022-08-04T18:24:21.956Z,1006.63
2022-08-04T18:25:21.949Z,1006.59